Time;durP1;ratioP1;P1;durP2;ratioP2;P2;SDS_P1;SDS_P2;PMS_P1;PMS_P2;Temp;Humidity;BMP_temperature;BMP_pressure;BME280_temperature;BME280_humidity;BME280_pressure;Samples;Min_cycle;Max_cycle;Signal;HPM_P1;HPM_P2
2021/12/01 00:01:59;;;;;;;0.83;0.83;;;3.00;99.90;;;;;;5023329;28;20338;-70
2021/12/01 00:04:44;;;;;;;1.13;1.13;;;3.00;99.90;;;;;;5025088;28;20353;-70
2021/12/01 00:07:27;;;;;;;1.10;1.10;;;3.00;99.90;;;;;;5027118;28;20194;-70
2021/12/01 00:10:14;;;;;;;0.73;0.73;;;3.00;99.90;;;;;;5023857;28;20214;-71
2021/12/01 00:12:58;;;;;;;0.67;0.67;;;3.00;99.90;;;;;;5026844;28;20194;-71
2021/12/01 00:15:45;;;;;;;0.63;0.63;;;3.00;99.90;;;;;;5026305;28;20251;-72
2021/12/01 00:18:30;;;;;;;0.83;0.63;;;3.10;99.90;;;;;;5023210;28;20207;-71
2021/12/01 00:21:15;;;;;;;1.70;0.63;;;3.10;99.90;;;;;;5026524;28;20198;-70
2021/12/01 00:24:01;;;;;;;0.40;0.33;;;3.10;99.90;;;;;;5036524;28;20241;-72
2021/12/01 00:26:46;;;;;;;0.43;0.43;;;3.10;99.90;;;;;;5043824;28;20194;-70
2021/12/01 00:29:31;;;;;;;0.80;0.80;;;3.10;99.90;;;;;;5022481;28;20199;-71
2021/12/01 00:32:17;;;;;;;0.30;0.30;;;3.10;99.90;;;;;;5020814;28;20222;-71
2021/12/01 00:35:08;;;;;;;0.63;0.30;;;3.10;99.90;;;;;;5023331;28;20222;-72
2021/12/01 00:37:53;;;;;;;0.37;0.33;;;3.10;99.90;;;;;;5024613;28;20207;-69
2021/12/01 00:40:39;;;;;;;0.60;0.60;;;3.20;99.90;;;;;;5021748;28;20272;-70
2021/12/01 00:43:26;;;;;;;0.67;0.67;;;3.10;99.90;;;;;;5024015;28;20231;-70
2021/12/01 00:46:13;;;;;;;0.50;0.43;;;3.20;99.90;;;;;;5024512;28;20199;-69
2021/12/01 00:48:58;;;;;;;0.67;0.67;;;3.20;99.90;;;;;;5021349;28;20406;-70
2021/12/01 00:51:43;;;;;;;0.40;0.40;;;3.20;99.90;;;;;;5024151;28;20195;-69
2021/12/01 00:54:27;;;;;;;0.50;0.47;;;3.20;99.90;;;;;;5008930;28;20223;-70
2021/12/01 00:57:12;;;;;;;0.43;0.43;;;3.20;99.90;;;;;;5021877;28;20195;-71
2021/12/01 00:59:58;;;;;;;0.33;0.33;;;3.20;99.90;;;;;;5024013;28;20279;-70
2021/12/01 01:02:43;;;;;;;0.43;0.43;;;3.20;99.90;;;;;;5020829;28;20203;-70
2021/12/01 01:05:29;;;;;;;0.60;0.60;;;3.20;99.90;;;;;;5022699;28;20663;-71
2021/12/01 01:08:15;;;;;;;0.53;0.53;;;3.20;99.90;;;;;;5023858;28;20219;-70
2021/12/01 01:16:50;;;;;;;0.87;0.87;;;3.20;99.90;;;;;;5011326;28;20246;-72
2021/12/01 01:19:36;;;;;;;1.10;1.00;;;3.20;99.90;;;;;;5020309;28;20223;-72
2021/12/01 01:22:22;;;;;;;1.03;0.93;;;3.20;99.90;;;;;;5023620;28;20207;-72
2021/12/01 01:25:08;;;;;;;0.93;0.93;;;3.20;99.90;;;;;;5022829;28;20196;-73
2021/12/01 01:27:54;;;;;;;1.00;1.00;;;3.30;99.90;;;;;;5020120;28;20219;-73
2021/12/01 01:30:38;;;;;;;1.40;1.23;;;3.30;99.90;;;;;;5022626;28;20258;-73
2021/12/01 01:33:23;;;;;;;0.70;0.70;;;3.30;99.90;;;;;;5020687;28;20203;-73
2021/12/01 01:36:08;;;;;;;1.10;1.10;;;3.30;99.90;;;;;;5020387;28;20231;-75
2021/12/01 01:38:55;;;;;;;1.37;1.27;;;3.30;99.90;;;;;;5023591;28;20308;-73
2021/12/01 01:41:41;;;;;;;1.73;1.30;;;3.30;99.90;;;;;;5019889;28;20330;-72
2021/12/01 01:44:25;;;;;;;1.53;1.43;;;3.30;99.90;;;;;;5021934;28;20223;-74
2021/12/01 01:47:11;;;;;;;1.40;1.40;;;3.30;99.90;;;;;;5022876;28;20287;-73
2021/12/01 01:50:21;;;;;;;1.10;1.07;;;3.30;99.90;;;;;;5019293;28;20259;-73
2021/12/01 01:53:12;;;;;;;1.80;1.80;;;3.30;99.90;;;;;;5022570;28;20313;-74
2021/12/01 01:55:59;;;;;;;1.33;1.23;;;3.40;99.90;;;;;;5023142;28;20250;-72
2021/12/01 01:58:44;;;;;;;4.50;1.23;;;3.40;99.90;;;;;;5019792;28;20200;-72
2021/12/01 02:01:44;;;;;;;2.00;1.83;;;3.40;99.90;;;;;;5022791;28;20203;-71
2021/12/01 02:04:33;;;;;;;1.37;1.27;;;3.40;99.90;;;;;;5022659;28;20308;-72
2021/12/01 02:07:17;;;;;;;0.80;0.77;;;3.50;99.90;;;;;;5019568;28;20296;-72
2021/12/01 02:10:04;;;;;;;0.90;0.90;;;3.40;99.90;;;;;;5022303;28;20200;-71
2021/12/01 02:12:48;;;;;;;2.97;2.10;;;3.40;99.90;;;;;;5021835;28;20199;-71
2021/12/01 02:15:33;;;;;;;1.00;1.00;;;3.50;99.90;;;;;;5019741;28;20207;-70
2021/12/01 02:18:18;;;;;;;1.20;1.20;;;3.50;99.90;;;;;;5022425;28;20195;-71
2021/12/01 02:21:06;;;;;;;1.07;0.97;;;3.50;99.90;;;;;;5020229;28;20195;-71
2021/12/01 02:23:58;;;;;;;1.43;1.33;;;3.50;99.90;;;;;;5020958;28;20250;-71
2021/12/01 02:26:47;;;;;;;1.80;1.67;;;3.50;99.90;;;;;;5022675;28;20339;-70
2021/12/01 02:29:31;;;;;;;2.30;1.87;;;3.60;99.90;;;;;;5019928;28;20283;-70
2021/12/01 02:32:16;;;;;;;2.00;1.90;;;3.60;99.90;;;;;;5020650;28;20192;-69
2021/12/01 02:35:00;;;;;;;1.27;1.27;;;3.60;99.90;;;;;;5022350;28;20274;-70
2021/12/01 02:37:45;;;;;;;3.07;2.27;;;3.60;99.90;;;;;;5019371;28;20239;-69
2021/12/01 02:40:29;;;;;;;2.37;2.17;;;3.60;99.90;;;;;;5022460;28;20243;-70
2021/12/01 02:43:15;;;;;;;2.13;2.03;;;3.70;99.90;;;;;;5021675;28;20224;-69
2021/12/01 02:46:02;;;;;;;2.40;2.20;;;3.70;99.90;;;;;;5019602;28;20351;-69
2021/12/01 02:48:49;;;;;;;2.23;2.13;;;3.70;99.90;;;;;;5022326;28;20235;-69
2021/12/01 02:51:36;;;;;;;2.43;2.23;;;3.60;99.90;;;;;;5020862;28;20270;-69
2021/12/01 02:54:21;;;;;;;1.90;1.80;;;3.60;99.90;;;;;;5020128;28;20187;-69
2021/12/01 02:57:06;;;;;;;1.70;1.20;;;3.60;99.90;;;;;;5022272;28;20276;-69
2021/12/01 02:59:51;;;;;;;1.83;1.73;;;3.70;99.90;;;;;;5019490;28;20255;-70
2021/12/01 03:02:35;;;;;;;2.13;2.03;;;3.70;99.90;;;;;;5020380;28;20224;-69
2021/12/01 03:05:20;;;;;;;2.60;2.40;;;3.70;99.90;;;;;;5021842;28;20235;-69
2021/12/01 03:08:06;;;;;;;2.43;2.30;;;3.70;99.90;;;;;;5018266;28;20323;-69
2021/12/01 03:10:54;;;;;;;1.17;1.13;;;3.70;99.90;;;;;;5021186;28;20211;-69
2021/12/01 03:13:38;;;;;;;1.73;1.70;;;3.70;99.90;;;;;;5021549;28;20263;-68
2021/12/01 03:16:24;;;;;;;2.43;1.70;;;3.80;99.90;;;;;;5017267;28;20629;-68
2021/12/01 03:19:08;;;;;;;2.47;1.70;;;3.80;99.90;;;;;;5021038;28;20215;-69
2021/12/01 03:21:53;;;;;;;1.83;1.73;;;3.90;99.90;;;;;;5019744;28;20195;-68
2021/12/01 03:24:38;;;;;;;2.03;1.73;;;3.90;99.90;;;;;;5019447;28;20235;-69
2021/12/01 03:27:23;;;;;;;2.67;2.20;;;3.90;99.90;;;;;;5022292;28;20334;-67
2021/12/01 03:30:10;;;;;;;1.50;1.40;;;4.00;99.90;;;;;;5019811;28;20266;-69
2021/12/01 03:32:54;;;;;;;1.20;1.13;;;4.00;99.90;;;;;;5020453;28;20215;-67
2021/12/01 03:35:43;;;;;;;2.50;1.50;;;4.00;99.90;;;;;;5021923;28;20204;-68
2021/12/01 03:38:28;;;;;;;2.80;2.60;;;4.00;99.90;;;;;;5018691;28;20195;-69
2021/12/01 03:41:12;;;;;;;2.33;1.97;;;4.00;99.90;;;;;;5021594;28;20274;-68
2021/12/01 03:43:57;;;;;;;1.80;1.70;;;4.00;99.90;;;;;;5020924;28;20266;-68
2021/12/01 03:46:41;;;;;;;1.57;1.43;;;4.00;99.90;;;;;;5017595;28;20199;-66
2021/12/01 03:49:27;;;;;;;1.83;1.73;;;4.00;99.90;;;;;;5021091;28;20235;-67
2021/12/01 03:52:16;;;;;;;1.83;1.73;;;4.00;99.90;;;;;;5020133;28;20239;-68
2021/12/01 03:55:00;;;;;;;1.73;1.70;;;4.10;99.90;;;;;;5019881;28;20200;-67
2021/12/01 03:57:46;;;;;;;3.97;1.30;;;4.10;99.90;;;;;;5022030;28;20215;-66
2021/12/01 04:00:30;;;;;;;1.70;1.60;;;4.10;99.90;;;;;;5019311;28;20196;-65
2021/12/01 04:03:15;;;;;;;1.27;1.20;;;4.10;99.90;;;;;;5019995;28;20227;-65
2021/12/01 04:06:00;;;;;;;1.37;1.20;;;4.10;99.90;;;;;;5025285;28;20207;-66
2021/12/01 04:08:45;;;;;;;1.27;1.17;;;4.10;99.90;;;;;;5020841;28;20227;-67
2021/12/01 04:11:29;;;;;;;2.50;2.20;;;4.10;99.90;;;;;;5024158;28;20198;-64
2021/12/01 04:14:14;;;;;;;1.40;1.30;;;4.10;99.90;;;;;;5029088;28;20302;-65
2021/12/01 04:16:58;;;;;;;1.60;1.50;;;4.10;99.90;;;;;;5025514;28;20305;-66
2021/12/01 04:19:45;;;;;;;2.33;2.23;;;4.10;99.90;;;;;;5030236;28;20190;-65
2021/12/01 04:22:29;;;;;;;3.27;1.60;;;4.10;99.90;;;;;;5027775;28;20465;-67
2021/12/01 04:25:14;;;;;;;4.30;2.77;;;4.20;99.90;;;;;;5028007;28;20249;-64
2021/12/01 04:27:59;;;;;;;2.57;1.70;;;4.20;99.90;;;;;;5030331;28;20283;-65
2021/12/01 04:30:43;;;;;;;4.43;2.17;;;4.20;99.90;;;;;;5026370;28;20246;-66
2021/12/01 04:33:28;;;;;;;1.50;1.50;;;4.20;99.90;;;;;;5028012;28;20194;-65
2021/12/01 04:36:12;;;;;;;1.77;1.43;;;4.20;99.90;;;;;;5030210;28;20218;-67
2021/12/01 04:38:57;;;;;;;1.70;1.60;;;4.20;99.90;;;;;;5026354;28;20186;-63
2021/12/01 04:41:56;;;;;;;1.60;1.30;;;4.20;99.90;;;;;;5024002;28;20226;-62
2021/12/01 04:44:41;;;;;;;1.30;1.20;;;4.20;99.90;;;;;;5027266;28;20265;-64
2021/12/01 04:47:30;;;;;;;1.00;1.00;;;4.20;99.90;;;;;;5025188;28;20202;-64
2021/12/01 04:50:17;;;;;;;1.87;1.57;;;4.20;99.90;;;;;;5026012;28;20347;-63
2021/12/01 04:53:02;;;;;;;1.20;1.20;;;4.20;99.90;;;;;;5026226;28;20231;-63
2021/12/01 04:55:47;;;;;;;0.70;0.70;;;4.20;99.90;;;;;;5025368;28;20245;-63
2021/12/01 04:58:33;;;;;;;1.37;1.27;;;4.30;99.90;;;;;;5028639;28;20261;-62
2021/12/01 05:01:17;;;;;;;1.07;1.07;;;4.20;99.90;;;;;;5022311;28;20199;-63
2021/12/01 05:04:03;;;;;;;0.77;0.77;;;4.20;99.90;;;;;;5023938;28;20222;-63
2021/12/01 05:06:49;;;;;;;1.00;1.00;;;4.20;99.90;;;;;;5026925;28;20199;-63
2021/12/01 05:09:35;;;;;;;1.17;1.17;;;4.20;99.90;;;;;;5023221;28;20198;-63
2021/12/01 05:12:19;;;;;;;1.20;1.20;;;4.20;99.90;;;;;;5024988;28;20198;-62
2021/12/01 05:15:05;;;;;;;1.43;1.33;;;4.20;99.90;;;;;;5023421;28;20267;-64
2021/12/01 05:17:49;;;;;;;1.03;1.03;;;4.30;99.90;;;;;;5024720;28;20242;-63
2021/12/01 05:20:36;;;;;;;1.73;1.63;;;4.30;99.90;;;;;;5028157;28;20195;-63
2021/12/01 05:23:20;;;;;;;2.23;1.10;;;4.30;99.90;;;;;;5023904;28;20299;-63
2021/12/01 05:26:06;;;;;;;1.70;1.63;;;4.30;99.90;;;;;;5024833;28;20608;-62
2021/12/01 05:28:51;;;;;;;1.53;1.43;;;4.30;99.90;;;;;;5027186;28;20214;-62
2021/12/01 05:31:36;;;;;;;1.20;1.20;;;4.30;99.90;;;;;;5025823;28;20230;-62
2021/12/01 05:34:20;;;;;;;1.20;1.20;;;4.40;99.90;;;;;;5019311;28;20341;-62
2021/12/01 05:37:05;;;;;;;0.93;0.93;;;4.30;99.90;;;;;;5026876;28;20198;-63
2021/12/01 05:39:50;;;;;;;1.40;1.40;;;4.30;99.90;;;;;;5022684;28;20226;-62
2021/12/01 05:42:34;;;;;;;0.87;0.87;;;4.40;99.90;;;;;;5024668;28;20309;-62
2021/12/01 05:45:19;;;;;;;1.73;1.63;;;4.40;99.90;;;;;;5024038;28;20299;-61
2021/12/01 05:48:03;;;;;;;0.90;0.90;;;4.40;99.90;;;;;;5023622;28;20242;-61
2021/12/01 05:50:48;;;;;;;0.93;0.93;;;4.50;99.90;;;;;;5026591;28;20266;-62
2021/12/01 05:53:32;;;;;;;1.50;1.50;;;4.50;99.90;;;;;;5022055;28;20195;-63
2021/12/01 05:56:16;;;;;;;2.47;1.90;;;4.50;99.90;;;;;;5020906;28;20242;-62
2021/12/01 05:59:01;;;;;;;1.33;1.10;;;4.60;99.90;;;;;;5026060;28;20206;-63
2021/12/01 06:01:45;;;;;;;1.00;1.00;;;4.60;99.90;;;;;;5022698;28;20202;-64
2021/12/01 06:04:30;;;;;;;1.63;1.53;;;4.50;99.90;;;;;;5019648;28;20242;-64
2021/12/01 06:07:15;;;;;;;1.20;1.20;;;4.60;99.90;;;;;;5027137;28;20211;-62
2021/12/01 06:10:02;;;;;;;3.10;1.00;;;4.60;99.90;;;;;;5023864;28;20195;-62
2021/12/01 06:12:46;;;;;;;1.30;1.27;;;4.50;99.90;;;;;;5024837;28;20215;-62
2021/12/01 06:15:31;;;;;;;1.07;1.07;;;4.50;99.90;;;;;;5022822;28;20222;-63
2021/12/01 06:18:16;;;;;;;1.30;1.20;;;4.60;99.90;;;;;;5023704;28;20273;-62
2021/12/01 06:21:01;;;;;;;1.17;1.17;;;4.60;99.90;;;;;;5026087;28;20214;-62
2021/12/01 06:23:45;;;;;;;0.80;0.80;;;4.60;99.90;;;;;;5022901;28;20269;-64
2021/12/01 06:26:30;;;;;;;0.93;0.93;;;4.60;99.90;;;;;;5024333;28;20199;-62
2021/12/01 06:29:14;;;;;;;1.47;1.30;;;4.60;99.90;;;;;;5027302;28;20198;-63
2021/12/01 06:31:59;;;;;;;1.53;1.43;;;4.70;99.90;;;;;;5023265;28;20203;-64
2021/12/01 06:34:43;;;;;;;0.83;0.83;;;4.60;99.90;;;;;;5019223;28;20202;-63
2021/12/01 06:37:27;;;;;;;1.20;1.13;;;4.60;99.90;;;;;;5026140;28;20195;-64
2021/12/01 06:40:13;;;;;;;0.60;0.60;;;4.70;99.90;;;;;;5022473;28;20195;-64
2021/12/01 06:46:39;;;;;;;0.93;0.93;;;4.70;99.90;;;;;;5023281;28;20640;-63
2021/12/01 06:49:23;;;;;;;0.77;0.77;;;4.60;99.90;;;;;;5023609;28;20215;-63
2021/12/01 06:52:09;;;;;;;0.90;0.90;;;4.60;99.90;;;;;;5024083;28;20199;-64
2021/12/01 06:54:54;;;;;;;0.70;0.70;;;4.60;99.90;;;;;;5023560;28;20285;-64
2021/12/01 06:57:38;;;;;;;0.70;0.70;;;4.60;99.90;;;;;;5022862;28;20237;-63
2021/12/01 07:00:25;;;;;;;1.50;0.60;;;4.60;99.90;;;;;;5023827;28;20223;-64
2021/12/01 07:03:09;;;;;;;0.50;0.50;;;4.60;99.90;;;;;;5021922;28;20226;-64
2021/12/01 07:05:54;;;;;;;0.93;0.90;;;4.60;99.90;;;;;;5023118;28;20191;-63
2021/12/01 07:08:38;;;;;;;0.63;0.63;;;4.60;99.90;;;;;;5026016;28;20225;-62
2021/12/01 07:11:23;;;;;;;0.90;0.90;;;4.60;99.90;;;;;;5024185;28;20203;-63
2021/12/01 07:14:07;;;;;;;0.63;0.63;;;4.60;99.90;;;;;;5020514;28;20226;-63
2021/12/01 07:16:51;;;;;;;0.70;0.70;;;4.60;99.90;;;;;;5026430;28;20194;-63
2021/12/01 07:19:36;;;;;;;0.53;0.53;;;4.60;99.90;;;;;;5023168;28;20226;-64
2021/12/01 07:22:20;;;;;;;1.33;0.70;;;4.60;99.90;;;;;;5022674;28;20207;-63
2021/12/01 07:25:05;;;;;;;1.10;1.00;;;4.60;99.90;;;;;;5022357;28;20258;-63
2021/12/01 07:27:49;;;;;;;1.00;1.00;;;4.60;99.90;;;;;;5021322;28;20261;-64
2021/12/01 07:30:35;;;;;;;0.70;0.60;;;4.60;99.90;;;;;;5024381;28;20206;-64
2021/12/01 07:33:19;;;;;;;0.50;0.50;;;4.60;99.90;;;;;;5021349;28;20206;-64
2021/12/01 07:36:04;;;;;;;0.37;0.37;;;4.60;99.90;;;;;;5020034;28;20279;-63
2021/12/01 07:38:53;;;;;;;1.60;1.07;;;4.70;99.90;;;;;;5025813;28;20360;-63
2021/12/01 07:41:37;;;;;;;0.47;0.47;;;4.70;99.90;;;;;;5026939;28;20215;-65
2021/12/01 07:44:21;;;;;;;0.87;0.87;;;4.80;99.90;;;;;;5021655;28;20269;-63
2021/12/01 07:47:06;;;;;;;0.40;0.40;;;4.80;99.90;;;;;;5029327;28;20207;-64
2021/12/01 07:49:52;;;;;;;0.30;0.30;;;4.80;99.90;;;;;;5026578;28;20257;-64
2021/12/01 07:52:38;;;;;;;0.60;0.60;;;4.80;99.90;;;;;;5027934;28;20335;-65
2021/12/01 07:55:23;;;;;;;0.40;0.40;;;4.80;99.90;;;;;;5027003;28;20195;-64
2021/12/01 07:58:07;;;;;;;0.60;0.60;;;4.90;99.90;;;;;;5026530;28;20257;-67
2021/12/01 08:00:51;;;;;;;0.37;0.37;;;4.90;99.90;;;;;;5028816;28;20210;-64
2021/12/01 08:03:36;;;;;;;0.70;0.70;;;4.90;99.90;;;;;;5025377;28;20282;-65
2021/12/01 08:06:20;;;;;;;1.77;1.43;;;4.90;99.90;;;;;;5026470;28;20213;-65
2021/12/01 08:09:05;;;;;;;0.47;0.47;;;5.00;99.90;;;;;;5029481;28;20334;-63
2021/12/01 08:11:50;;;;;;;1.27;0.83;;;5.00;99.90;;;;;;5027482;28;20199;-63
2021/12/01 08:14:35;;;;;;;1.30;1.00;;;5.00;99.90;;;;;;5024791;28;20203;-64
2021/12/01 08:17:19;;;;;;;0.80;0.77;;;5.00;99.90;;;;;;5029437;28;20194;-64
2021/12/01 08:20:04;;;;;;;1.47;0.83;;;5.00;99.90;;;;;;5026341;28;20257;-65
2021/12/01 08:22:48;;;;;;;0.60;0.57;;;5.10;99.90;;;;;;5029285;28;20195;-63
2021/12/01 08:25:33;;;;;;;0.83;0.70;;;5.00;99.90;;;;;;5027340;28;20186;-64
2021/12/01 08:28:18;;;;;;;0.57;0.57;;;5.10;99.90;;;;;;5025897;28;20249;-62
2021/12/01 08:31:02;;;;;;;0.60;0.60;;;5.10;99.90;;;;;;5028815;28;20207;-64
2021/12/01 08:33:47;;;;;;;0.67;0.40;;;5.20;99.90;;;;;;5024260;28;20195;-62
2021/12/01 08:36:32;;;;;;;0.40;0.40;;;5.30;99.90;;;;;;5026027;28;20259;-63
2021/12/01 08:39:17;;;;;;;0.63;0.63;;;5.30;99.90;;;;;;5027359;28;20210;-63
2021/12/01 08:42:01;;;;;;;0.90;0.77;;;5.40;99.90;;;;;;5023538;28;20257;-64
2021/12/01 08:44:47;;;;;;;0.47;0.47;;;5.40;99.90;;;;;;5023434;28;20277;-62
2021/12/01 08:47:31;;;;;;;0.93;0.93;;;5.40;99.90;;;;;;5028791;28;20210;-62
2021/12/01 08:50:17;;;;;;;0.60;0.60;;;5.40;99.90;;;;;;5024489;28;20269;-62
2021/12/01 08:53:01;;;;;;;0.50;0.50;;;5.50;99.90;;;;;;5026644;28;20282;-62
2021/12/01 08:55:45;;;;;;;1.03;0.77;;;5.50;99.90;;;;;;5026895;28;20263;-64
2021/12/01 08:58:30;;;;;;;0.90;0.90;;;5.50;99.90;;;;;;5025700;28;20187;-62
2021/12/01 09:01:15;;;;;;;0.50;0.50;;;5.60;99.90;;;;;;5028450;28;20263;-62
2021/12/01 09:04:00;;;;;;;0.60;0.60;;;5.60;99.90;;;;;;5021324;28;20275;-61
2021/12/01 09:06:45;;;;;;;0.70;0.70;;;5.50;99.90;;;;;;5025753;28;20253;-61
2021/12/01 09:09:30;;;;;;;0.50;0.50;;;5.60;99.90;;;;;;5028704;28;20194;-62
2021/12/01 09:12:14;;;;;;;0.63;0.63;;;5.60;99.90;;;;;;5025029;28;20242;-62
2021/12/01 09:14:59;;;;;;;0.40;0.40;;;5.60;99.90;;;;;;5023659;28;20191;-62
2021/12/01 09:17:44;;;;;;;0.77;0.53;;;5.60;99.90;;;;;;5028289;28;20262;-64
2021/12/01 09:20:29;;;;;;;0.83;0.70;;;5.60;99.90;;;;;;5023959;28;20210;-62
2021/12/01 09:23:14;;;;;;;3.30;0.93;;;5.60;99.90;;;;;;5025701;28;20268;-64
2021/12/01 09:25:58;;;;;;;0.90;0.90;;;5.70;99.90;;;;;;5027947;28;20206;-64
2021/12/01 09:28:42;;;;;;;0.70;0.40;;;5.70;99.90;;;;;;5025105;28;20249;-63
2021/12/01 09:31:27;;;;;;;0.50;0.50;;;5.80;99.90;;;;;;5026637;28;20199;-63
2021/12/01 09:34:11;;;;;;;0.87;0.87;;;5.80;99.90;;;;;;5023009;28;20222;-64
2021/12/01 09:36:56;;;;;;;0.40;0.40;;;5.90;99.90;;;;;;5025197;28;20239;-63
2021/12/01 09:39:41;;;;;;;0.30;0.30;;;6.00;99.90;;;;;;5028032;28;20278;-62
2021/12/01 09:42:25;;;;;;;0.60;0.60;;;6.00;99.90;;;;;;5023219;28;20253;-63
2021/12/01 09:45:11;;;;;;;0.63;0.50;;;6.10;99.90;;;;;;5023816;28;20223;-63
2021/12/01 09:47:55;;;;;;;0.30;0.30;;;6.20;99.90;;;;;;5027619;28;20246;-64
2021/12/01 09:50:40;;;;;;;0.33;0.33;;;6.30;99.90;;;;;;5027007;28;20237;-62
2021/12/01 09:53:25;;;;;;;0.53;0.33;;;6.30;99.90;;;;;;5026157;28;20211;-64
2021/12/01 09:56:10;;;;;;;0.27;0.27;;;6.50;99.90;;;;;;5027078;28;20245;-65
2021/12/01 09:58:55;;;;;;;1.10;0.70;;;6.70;99.90;;;;;;5024957;28;20210;-63
2021/12/01 10:01:39;;;;;;;0.57;0.27;;;6.70;99.90;;;;;;5027250;28;20195;-63
2021/12/01 10:04:25;;;;;;;0.30;0.30;;;6.90;99.90;;;;;;5021834;28;20218;-65
2021/12/01 10:07:26;;;;;;;0.40;0.40;;;6.90;99.90;;;;;;5025597;28;20187;-64
2021/12/01 10:10:13;;;;;;;0.30;0.30;;;6.80;99.90;;;;;;5026958;28;20194;-65
2021/12/01 10:12:57;;;;;;;0.20;0.20;;;6.90;99.90;;;;;;5025704;28;20207;-64
2021/12/01 10:15:42;;;;;;;0.10;0.10;;;7.20;99.90;;;;;;5024789;28;20253;-64
2021/12/01 10:18:28;;;;;;;0.20;0.20;;;7.00;99.90;;;;;;5027039;28;20199;-63
2021/12/01 10:21:22;;;;;;;0.43;0.37;;;7.10;99.90;;;;;;5021920;28;20195;-65
2021/12/01 10:24:10;;;;;;;0.40;0.40;;;7.20;99.90;;;;;;5024484;28;20224;-63
2021/12/01 10:26:56;;;;;;;0.37;0.37;;;7.10;99.90;;;;;;5026131;28;20206;-64
2021/12/01 10:29:49;;;;;;;0.60;0.60;;;6.90;99.90;;;;;;5024165;28;20190;-64
2021/12/01 10:32:34;;;;;;;0.27;0.27;;;7.20;99.90;;;;;;5026362;28;20238;-63
2021/12/01 10:35:35;;;;;;;0.20;0.20;;;7.00;99.90;;;;;;5023352;28;20238;-63
2021/12/01 10:38:28;;;;;;;0.27;0.27;;;6.90;99.90;;;;;;5023990;28;20246;-65
2021/12/01 10:41:16;;;;;;;1.03;0.37;;;7.10;99.90;;;;;;5025976;28;20211;-64
2021/12/01 10:44:08;;;;;;;0.20;0.20;;;7.20;99.90;;;;;;5023528;28;20230;-62
2021/12/01 10:46:53;;;;;;;0.90;0.57;;;7.00;99.90;;;;;;5024059;28;20203;-63
2021/12/01 10:49:43;;;;;;;0.30;0.30;;;7.10;99.90;;;;;;5027576;28;20234;-63
2021/12/01 10:52:38;;;;;;;0.10;0.10;;;7.10;99.90;;;;;;5024209;28;20190;-62
2021/12/01 10:55:25;;;;;;;0.40;0.30;;;7.10;99.90;;;;;;5025160;28;20279;-62
2021/12/01 10:58:09;;;;;;;0.10;0.10;;;7.10;99.90;;;;;;5028773;28;20199;-64
2021/12/01 11:00:55;;;;;;;0.30;0.30;;;7.20;99.90;;;;;;5025820;28;20203;-66
2021/12/01 11:03:45;;;;;;;0.60;0.40;;;7.00;99.90;;;;;;5025915;28;20304;-64
2021/12/01 11:06:33;;;;;;;0.20;0.20;;;7.00;99.90;;;;;;5028007;28;20194;-65
2021/12/01 11:09:20;;;;;;;2.67;0.83;;;7.00;99.90;;;;;;5025361;28;20195;-66
2021/12/01 11:12:05;;;;;;;0.10;0.10;;;7.00;99.90;;;;;;5025447;28;20203;-64
2021/12/01 11:14:49;;;;;;;1.40;0.30;;;7.00;99.90;;;;;;5027071;28;20235;-63
2021/12/01 11:17:40;;;;;;;0.37;0.13;;;7.00;99.90;;;;;;5024440;28;20226;-65
2021/12/01 11:20:34;;;;;;;0.30;0.30;;;7.00;99.90;;;;;;5026246;28;20199;-66
2021/12/01 11:23:24;;;;;;;0.57;0.43;;;7.00;99.90;;;;;;5027726;28;20273;-65
2021/12/01 11:26:16;;;;;;;0.50;0.40;;;7.00;99.90;;;;;;5024527;28;20255;-66
2021/12/01 11:29:02;;;;;;;0.77;0.50;;;7.10;99.90;;;;;;5026343;28;20267;-64
2021/12/01 11:31:47;;;;;;;4.50;0.83;;;7.00;99.90;;;;;;5026957;28;20222;-64
2021/12/01 11:34:31;;;;;;;0.47;0.20;;;7.00;99.90;;;;;;5024268;28;20194;-64
2021/12/01 11:37:16;;;;;;;1.93;0.80;;;7.10;99.90;;;;;;5027253;28;20191;-65
2021/12/01 11:40:01;;;;;;;0.40;0.40;;;7.20;99.90;;;;;;5025501;28;20199;-65
2021/12/01 11:42:47;;;;;;;2.10;0.30;;;7.20;99.90;;;;;;5024310;28;20279;-65
2021/12/01 11:45:32;;;;;;;0.43;0.43;;;7.20;99.90;;;;;;5026613;28;20195;-64
2021/12/01 11:48:27;;;;;;;1.40;0.30;;;7.30;99.90;;;;;;5024160;28;20199;-64
2021/12/01 11:51:36;;;;;;;0.37;0.33;;;7.50;99.90;;;;;;5024747;28;20249;-65
2021/12/01 11:54:23;;;;;;;0.30;0.30;;;7.40;99.90;;;;;;5026477;28;20199;-64
2021/12/01 11:57:09;;;;;;;0.20;0.20;;;7.40;99.90;;;;;;5024361;28;20287;-65
2021/12/01 11:59:53;;;;;;;0.10;0.10;;;7.50;99.90;;;;;;5021741;28;20308;-64
2021/12/01 12:02:38;;;;;;;0.83;0.37;;;7.60;99.90;;;;;;5024157;28;20211;-65
2021/12/01 12:05:25;;;;;;;0.70;0.47;;;7.40;99.90;;;;;;5016945;28;20211;-63
2021/12/01 12:08:29;;;;;;;4.13;0.73;;;7.30;99.90;;;;;;5023249;28;20207;-64
2021/12/01 12:11:43;;;;;;;0.83;0.50;;;7.40;99.90;;;;;;5020823;28;20271;-63
2021/12/01 12:14:32;;;;;;;0.20;0.20;;;7.40;99.90;;;;;;5023157;28;20239;-64
2021/12/01 12:17:33;;;;;;;0.30;0.27;;;7.50;99.90;;;;;;5033442;28;20195;-65
2021/12/01 12:20:28;;;;;;;0.07;0.07;;;7.40;99.90;;;;;;5025596;28;20195;-64
2021/12/01 12:23:15;;;;;;;0.20;0.20;;;7.50;99.90;;;;;;5023348;28;20198;-66
2021/12/01 12:25:59;;;;;;;1.10;0.70;;;7.60;99.90;;;;;;5019743;28;20202;-65
2021/12/01 12:28:44;;;;;;;0.40;0.33;;;7.60;99.90;;;;;;5029470;28;20199;-64
2021/12/01 12:31:29;;;;;;;0.40;0.20;;;7.70;99.90;;;;;;5026338;28;20222;-64
2021/12/01 12:34:21;;;;;;;0.00;0.00;;;7.70;99.90;;;;;;5026031;28;20198;-65
2021/12/01 12:37:21;;;;;;;0.07;0.07;;;7.80;99.90;;;;;;5025540;28;20198;-64
2021/12/01 12:40:10;;;;;;;0.10;0.10;;;7.80;99.90;;;;;;5026533;28;20251;-64
2021/12/01 12:43:08;;;;;;;0.30;0.20;;;7.80;99.90;;;;;;5025987;28;20199;-64
2021/12/01 12:46:19;;;;;;;0.10;0.10;;;7.80;99.90;;;;;;5022732;28;20231;-65
2021/12/01 12:49:04;;;;;;;0.10;0.10;;;7.80;99.90;;;;;;5016203;28;20242;-64
2021/12/01 12:51:48;;;;;;;0.50;0.23;;;7.90;99.90;;;;;;5027412;28;20199;-64
2021/12/01 12:54:37;;;;;;;0.40;0.20;;;7.90;99.90;;;;;;5024163;28;20278;-66
2021/12/01 12:57:22;;;;;;;0.10;0.10;;;8.00;99.90;;;;;;5025832;28;20203;-65
2021/12/01 13:00:53;;;;;;;0.20;0.00;;;8.10;99.90;;;;;;5028838;28;20222;-64
2021/12/01 13:03:38;;;;;;;0.00;0.00;;;8.10;99.90;;;;;;4956251;28;20272;-64
2021/12/01 13:06:27;;;;;;;2.13;0.17;;;8.20;99.90;;;;;;4953061;28;20262;-64
2021/12/01 13:09:17;;;;;;;0.10;0.10;;;8.20;99.90;;;;;;4953453;28;20224;-65
2021/12/01 13:12:02;;;;;;;1.37;0.30;;;8.30;99.90;;;;;;4937137;29;20242;-65
2021/12/01 13:14:48;;;;;;;0.10;0.10;;;8.20;99.90;;;;;;4934805;29;20192;-65
2021/12/01 13:17:32;;;;;;;0.03;0.03;;;8.30;99.90;;;;;;4948969;28;20221;-65
2021/12/01 13:20:18;;;;;;;0.20;0.20;;;8.30;99.90;;;;;;4953476;28;20248;-65
2021/12/01 13:23:07;;;;;;;0.20;0.20;;;8.30;99.90;;;;;;4952236;28;20328;-66
2021/12/01 13:25:56;;;;;;;0.23;0.23;;;8.30;99.90;;;;;;4945081;28;20221;-66
2021/12/01 13:28:49;;;;;;;0.20;0.20;;;8.30;99.90;;;;;;4947266;28;20197;-65
2021/12/01 13:31:46;;;;;;;0.10;0.10;;;8.30;99.90;;;;;;4951273;28;20336;-65
2021/12/01 13:34:34;;;;;;;0.10;0.10;;;8.30;99.90;;;;;;4946749;28;20205;-64
2021/12/01 13:37:18;;;;;;;0.60;0.07;;;8.30;99.90;;;;;;4991872;28;20222;-64
2021/12/01 13:40:10;;;;;;;0.20;0.20;;;8.30;99.90;;;;;;5022872;28;20215;-66
2021/12/01 13:42:56;;;;;;;0.20;0.20;;;8.40;99.90;;;;;;5025433;28;20330;-65
2021/12/01 13:45:40;;;;;;;0.10;0.10;;;8.40;99.90;;;;;;5021918;28;20203;-64
2021/12/01 13:48:26;;;;;;;0.10;0.10;;;8.40;99.90;;;;;;5024798;28;20218;-65
2021/12/01 13:51:13;;;;;;;0.20;0.20;;;8.30;99.90;;;;;;5028373;28;20219;-65
2021/12/01 13:53:57;;;;;;;0.10;0.10;;;8.30;99.90;;;;;;5025774;28;20202;-66
2021/12/01 13:56:42;;;;;;;0.10;0.10;;;8.30;99.90;;;;;;5023328;28;20272;-66
2021/12/01 13:59:46;;;;;;;0.10;0.10;;;8.40;99.90;;;;;;5028310;28;20191;-65
2021/12/01 14:02:31;;;;;;;0.10;0.10;;;8.30;99.90;;;;;;5025757;28;20345;-64
2021/12/01 14:05:16;;;;;;;0.10;0.10;;;8.30;99.90;;;;;;5021128;28;20282;-64
2021/12/01 14:08:23;;;;;;;0.10;0.10;;;8.30;99.90;;;;;;5027975;28;20211;-64
2021/12/01 14:11:27;;;;;;;0.10;0.10;;;8.30;99.90;;;;;;5022239;28;20250;-63
2021/12/01 14:14:20;;;;;;;0.13;0.13;;;8.20;99.90;;;;;;5022828;28;20198;-63
2021/12/01 14:17:05;;;;;;;0.10;0.10;;;8.20;99.90;;;;;;5027121;28;20198;-65
2021/12/01 14:19:56;;;;;;;0.20;0.10;;;8.10;99.90;;;;;;5024733;28;20261;-65
2021/12/01 14:22:44;;;;;;;0.57;0.43;;;8.00;99.90;;;;;;5025059;28;20275;-65
2021/12/01 14:25:30;;;;;;;0.57;0.50;;;8.00;99.90;;;;;;5022484;28;20202;-67
2021/12/01 14:28:14;;;;;;;0.00;0.00;;;8.00;99.90;;;;;;5024502;28;20249;-67
2021/12/01 14:31:00;;;;;;;0.07;0.07;;;8.00;99.90;;;;;;5025726;28;20195;-66
2021/12/01 14:34:01;;;;;;;0.20;0.20;;;7.90;99.90;;;;;;5026852;28;20218;-66
2021/12/01 14:36:50;;;;;;;2.30;0.13;;;7.90;99.90;;;;;;5022942;28;20326;-66
2021/12/01 14:39:35;;;;;;;0.63;0.40;;;7.90;99.90;;;;;;5025645;28;20278;-67
2021/12/01 14:42:23;;;;;;;0.20;0.20;;;7.90;99.90;;;;;;5026403;28;20203;-67
2021/12/01 14:45:09;;;;;;;0.20;0.20;;;7.90;99.90;;;;;;5018763;28;20254;-67
2021/12/01 14:48:07;;;;;;;0.10;0.10;;;7.90;99.90;;;;;;5025899;28;20246;-66
2021/12/01 14:50:54;;;;;;;0.00;0.00;;;7.90;99.90;;;;;;5026351;28;20238;-67